sensor_id;sensor_type;location;lat;lon;timestamp;P1;durP1;ratioP1;P2;durP2;ratioP2
82230;SDS011;71832;45.138;9.816;2024-03-23T00:54:20;42.88;;;18.13;;
82230;SDS011;71832;45.138;9.816;2024-03-23T00:56:49;34.60;;;18.23;;
82230;SDS011;71832;45.138;9.816;2024-03-23T00:59:18;34.10;;;17.10;;
82230;SDS011;71832;45.138;9.816;2024-03-23T01:01:48;32.75;;;16.98;;
82230;SDS011;71832;45.138;9.816;2024-03-23T01:04:16;37.17;;;18.38;;
82230;SDS011;71832;45.138;9.816;2024-03-23T01:06:45;39.67;;;19.33;;
82230;SDS011;71832;45.138;9.816;2024-03-23T01:09:13;33.15;;;17.13;;
82230;SDS011;71832;45.138;9.816;2024-03-23T01:11:41;34.53;;;16.48;;
82230;SDS011;71832;45.138;9.816;2024-03-23T01:14:10;34.22;;;17.80;;
82230;SDS011;71832;45.138;9.816;2024-03-23T01:16:38;39.35;;;16.05;;
82230;SDS011;71832;45.138;9.816;2024-03-23T01:19:06;37.60;;;16.40;;
82230;SDS011;71832;45.138;9.816;2024-03-23T01:21:35;30.55;;;14.10;;
82230;SDS011;71832;45.138;9.816;2024-03-23T01:24:04;25.52;;;14.50;;
82230;SDS011;71832;45.138;9.816;2024-03-23T01:26:34;30.85;;;14.95;;
82230;SDS011;71832;45.138;9.816;2024-03-23T01:29:03;34.83;;;15.82;;
82230;SDS011;71832;45.138;9.816;2024-03-23T01:31:31;30.75;;;15.93;;
82230;SDS011;71832;45.138;9.816;2024-03-23T01:34:00;27.60;;;13.80;;
82230;SDS011;71832;45.138;9.816;2024-03-23T01:36:28;35.33;;;16.42;;
82230;SDS011;71832;45.138;9.816;2024-03-23T01:38:57;30.00;;;16.05;;
82230;SDS011;71832;45.138;9.816;2024-03-23T01:41:26;37.13;;;16.15;;
82230;SDS011;71832;45.138;9.816;2024-03-23T01:43:54;32.30;;;14.73;;
82230;SDS011;71832;45.138;9.816;2024-03-23T01:46:22;33.58;;;14.75;;
82230;SDS011;71832;45.138;9.816;2024-03-23T01:48:50;28.17;;;14.73;;
82230;SDS011;71832;45.138;9.816;2024-03-23T01:51:18;36.78;;;16.95;;
82230;SDS011;71832;45.138;9.816;2024-03-23T01:53:47;33.00;;;15.63;;
82230;SDS011;71832;45.138;9.816;2024-03-23T01:56:16;40.45;;;17.70;;
82230;SDS011;71832;45.138;9.816;2024-03-23T01:58:45;38.50;;;17.60;;
82230;SDS011;71832;45.138;9.816;2024-03-23T02:01:14;46.08;;;20.38;;
82230;SDS011;71832;45.138;9.816;2024-03-23T02:03:42;46.67;;;21.45;;
82230;SDS011;71832;45.138;9.816;2024-03-23T02:06:10;47.03;;;20.58;;
82230;SDS011;71832;45.138;9.816;2024-03-23T02:08:39;46.90;;;20.95;;
82230;SDS011;71832;45.138;9.816;2024-03-23T02:11:08;42.38;;;20.08;;
82230;SDS011;71832;45.138;9.816;2024-03-23T02:13:36;38.90;;;18.25;;
82230;SDS011;71832;45.138;9.816;2024-03-23T02:16:04;40.53;;;18.42;;
82230;SDS011;71832;45.138;9.816;2024-03-23T02:18:33;49.33;;;21.90;;
82230;SDS011;71832;45.138;9.816;2024-03-23T02:21:02;47.65;;;21.75;;
82230;SDS011;71832;45.138;9.816;2024-03-23T02:23:31;51.33;;;21.25;;
82230;SDS011;71832;45.138;9.816;2024-03-23T02:25:59;51.00;;;23.10;;
82230;SDS011;71832;45.138;9.816;2024-03-23T02:28:28;51.80;;;23.25;;
82230;SDS011;71832;45.138;9.816;2024-03-23T02:30:56;53.28;;;22.85;;
82230;SDS011;71832;45.138;9.816;2024-03-23T02:33:26;55.75;;;22.70;;
82230;SDS011;71832;45.138;9.816;2024-03-23T02:35:55;55.20;;;23.27;;
82230;SDS011;71832;45.138;9.816;2024-03-23T02:38:23;51.17;;;22.33;;
82230;SDS011;71832;45.138;9.816;2024-03-23T02:40:52;53.00;;;24.35;;
82230;SDS011;71832;45.138;9.816;2024-03-23T02:43:21;56.83;;;22.35;;
82230;SDS011;71832;45.138;9.816;2024-03-23T02:45:49;50.20;;;22.73;;
82230;SDS011;71832;45.138;9.816;2024-03-23T02:48:18;51.30;;;23.23;;
82230;SDS011;71832;45.138;9.816;2024-03-23T02:50:46;45.00;;;21.45;;
82230;SDS011;71832;45.138;9.816;2024-03-23T02:53:14;46.92;;;22.10;;
82230;SDS011;71832;45.138;9.816;2024-03-23T02:55:43;45.33;;;21.13;;
82230;SDS011;71832;45.138;9.816;2024-03-23T02:58:11;47.53;;;22.00;;
82230;SDS011;71832;45.138;9.816;2024-03-23T03:00:39;51.80;;;23.10;;
82230;SDS011;71832;45.138;9.816;2024-03-23T03:03:07;50.33;;;21.90;;
82230;SDS011;71832;45.138;9.816;2024-03-23T03:05:35;46.55;;;21.73;;
82230;SDS011;71832;45.138;9.816;2024-03-23T03:08:03;45.33;;;20.10;;
82230;SDS011;71832;45.138;9.816;2024-03-23T03:10:31;40.35;;;19.02;;
82230;SDS011;71832;45.138;9.816;2024-03-23T03:13:02;39.13;;;17.73;;
82230;SDS011;71832;45.138;9.816;2024-03-23T03:15:31;38.20;;;17.60;;
82230;SDS011;71832;45.138;9.816;2024-03-23T03:17:59;31.52;;;16.15;;
82230;SDS011;71832;45.138;9.816;2024-03-23T03:20:28;32.75;;;14.65;;
82230;SDS011;71832;45.138;9.816;2024-03-23T03:22:57;29.75;;;16.92;;
82230;SDS011;71832;45.138;9.816;2024-03-23T03:25:26;34.83;;;16.65;;
82230;SDS011;71832;45.138;9.816;2024-03-23T03:27:54;36.40;;;17.65;;
82230;SDS011;71832;45.138;9.816;2024-03-23T03:30:22;37.33;;;18.77;;
82230;SDS011;71832;45.138;9.816;2024-03-23T03:32:52;40.10;;;18.45;;
82230;SDS011;71832;45.138;9.816;2024-03-23T03:35:22;43.33;;;18.80;;
82230;SDS011;71832;45.138;9.816;2024-03-23T03:37:50;43.90;;;18.38;;
82230;SDS011;71832;45.138;9.816;2024-03-23T03:40:18;40.90;;;18.13;;
82230;SDS011;71832;45.138;9.816;2024-03-23T03:42:46;35.80;;;16.75;;
82230;SDS011;71832;45.138;9.816;2024-03-23T03:45:14;45.20;;;20.98;;
82230;SDS011;71832;45.138;9.816;2024-03-23T03:47:42;50.30;;;22.70;;
82230;SDS011;71832;45.138;9.816;2024-03-23T03:50:11;46.25;;;20.77;;
82230;SDS011;71832;45.138;9.816;2024-03-23T03:52:39;42.45;;;19.75;;
82230;SDS011;71832;45.138;9.816;2024-03-23T03:55:12;42.50;;;19.38;;
82230;SDS011;71832;45.138;9.816;2024-03-23T03:57:41;36.40;;;18.88;;
82230;SDS011;71832;45.138;9.816;2024-03-23T04:00:09;42.30;;;18.95;;
82230;SDS011;71832;45.138;9.816;2024-03-23T04:02:38;42.45;;;20.13;;
82230;SDS011;71832;45.138;9.816;2024-03-23T04:05:07;40.95;;;19.85;;
82230;SDS011;71832;45.138;9.816;2024-03-23T04:07:35;35.10;;;16.77;;
82230;SDS011;71832;45.138;9.816;2024-03-23T04:10:03;40.90;;;16.17;;
82230;SDS011;71832;45.138;9.816;2024-03-23T04:12:34;36.25;;;17.27;;
82230;SDS011;71832;45.138;9.816;2024-03-23T04:15:02;38.67;;;17.23;;
82230;SDS011;71832;45.138;9.816;2024-03-23T04:17:31;38.70;;;16.67;;
82230;SDS011;71832;45.138;9.816;2024-03-23T04:20:00;39.25;;;17.58;;
82230;SDS011;71832;45.138;9.816;2024-03-23T04:22:31;46.17;;;20.75;;
82230;SDS011;71832;45.138;9.816;2024-03-23T04:25:00;42.50;;;20.73;;
82230;SDS011;71832;45.138;9.816;2024-03-23T04:27:32;46.42;;;19.25;;
82230;SDS011;71832;45.138;9.816;2024-03-23T04:30:01;52.67;;;21.95;;
82230;SDS011;71832;45.138;9.816;2024-03-23T04:32:30;48.60;;;21.05;;
82230;SDS011;71832;45.138;9.816;2024-03-23T04:34:58;50.10;;;22.00;;
82230;SDS011;71832;45.138;9.816;2024-03-23T04:37:27;55.88;;;23.48;;
82230;SDS011;71832;45.138;9.816;2024-03-23T04:39:56;50.72;;;22.42;;
82230;SDS011;71832;45.138;9.816;2024-03-23T04:42:23;55.10;;;24.52;;
82230;SDS011;71832;45.138;9.816;2024-03-23T04:44:52;51.47;;;23.02;;
82230;SDS011;71832;45.138;9.816;2024-03-23T04:47:20;46.47;;;21.90;;
82230;SDS011;71832;45.138;9.816;2024-03-23T04:49:48;45.47;;;21.10;;
82230;SDS011;71832;45.138;9.816;2024-03-23T04:52:17;44.53;;;20.45;;
82230;SDS011;71832;45.138;9.816;2024-03-23T04:54:46;41.58;;;18.50;;
82230;SDS011;71832;45.138;9.816;2024-03-23T04:57:15;39.85;;;17.85;;
82230;SDS011;71832;45.138;9.816;2024-03-23T04:59:43;38.97;;;19.75;;
82230;SDS011;71832;45.138;9.816;2024-03-23T05:02:13;38.13;;;18.23;;
82230;SDS011;71832;45.138;9.816;2024-03-23T05:04:42;45.25;;;19.02;;
82230;SDS011;71832;45.138;9.816;2024-03-23T05:07:10;40.10;;;19.23;;
82230;SDS011;71832;45.138;9.816;2024-03-23T05:09:38;43.42;;;19.30;;
82230;SDS011;71832;45.138;9.816;2024-03-23T05:12:07;46.53;;;21.42;;
82230;SDS011;71832;45.138;9.816;2024-03-23T05:14:35;44.90;;;20.63;;
82230;SDS011;71832;45.138;9.816;2024-03-23T05:17:04;52.55;;;22.55;;
82230;SDS011;71832;45.138;9.816;2024-03-23T05:19:32;48.75;;;23.10;;
82230;SDS011;71832;45.138;9.816;2024-03-23T05:22:00;47.13;;;21.30;;
82230;SDS011;71832;45.138;9.816;2024-03-23T05:24:29;45.83;;;20.85;;
82230;SDS011;71832;45.138;9.816;2024-03-23T05:26:58;47.80;;;23.13;;
82230;SDS011;71832;45.138;9.816;2024-03-23T05:29:26;51.92;;;22.50;;
82230;SDS011;71832;45.138;9.816;2024-03-23T05:31:55;50.35;;;23.38;;
82230;SDS011;71832;45.138;9.816;2024-03-23T05:34:24;48.88;;;21.92;;
82230;SDS011;71832;45.138;9.816;2024-03-23T05:36:51;49.20;;;22.75;;
82230;SDS011;71832;45.138;9.816;2024-03-23T05:39:18;46.65;;;22.67;;
82230;SDS011;71832;45.138;9.816;2024-03-23T05:41:48;49.97;;;21.92;;
82230;SDS011;71832;45.138;9.816;2024-03-23T05:44:16;50.42;;;22.80;;
82230;SDS011;71832;45.138;9.816;2024-03-23T05:46:44;50.60;;;22.45;;
82230;SDS011;71832;45.138;9.816;2024-03-23T05:49:15;57.50;;;24.85;;
82230;SDS011;71832;45.138;9.816;2024-03-23T05:51:43;51.92;;;22.88;;
82230;SDS011;71832;45.138;9.816;2024-03-23T05:54:11;55.20;;;23.20;;
82230;SDS011;71832;45.138;9.816;2024-03-23T05:56:38;53.42;;;21.65;;
82230;SDS011;71832;45.138;9.816;2024-03-23T05:59:07;57.85;;;23.38;;
82230;SDS011;71832;45.138;9.816;2024-03-23T06:01:35;54.80;;;24.33;;
82230;SDS011;71832;45.138;9.816;2024-03-23T06:04:04;58.00;;;25.35;;
82230;SDS011;71832;45.138;9.816;2024-03-23T06:06:32;53.72;;;23.27;;
82230;SDS011;71832;45.138;9.816;2024-03-23T06:09:00;54.20;;;24.17;;
82230;SDS011;71832;45.138;9.816;2024-03-23T06:11:27;56.15;;;24.02;;
82230;SDS011;71832;45.138;9.816;2024-03-23T06:13:56;49.92;;;23.77;;
82230;SDS011;71832;45.138;9.816;2024-03-23T06:16:24;52.67;;;21.92;;
82230;SDS011;71832;45.138;9.816;2024-03-23T06:18:53;52.53;;;21.40;;
82230;SDS011;71832;45.138;9.816;2024-03-23T06:21:22;52.50;;;22.67;;
82230;SDS011;71832;45.138;9.816;2024-03-23T06:23:51;51.17;;;23.63;;
82230;SDS011;71832;45.138;9.816;2024-03-23T06:26:19;64.57;;;28.42;;
82230;SDS011;71832;45.138;9.816;2024-03-23T06:28:48;61.75;;;25.88;;
82230;SDS011;71832;45.138;9.816;2024-03-23T06:31:16;60.95;;;26.50;;
82230;SDS011;71832;45.138;9.816;2024-03-23T06:33:43;55.40;;;26.38;;
82230;SDS011;71832;45.138;9.816;2024-03-23T06:36:11;55.30;;;24.35;;
82230;SDS011;71832;45.138;9.816;2024-03-23T06:38:42;56.25;;;25.38;;
82230;SDS011;71832;45.138;9.816;2024-03-23T06:41:11;56.67;;;25.05;;
82230;SDS011;71832;45.138;9.816;2024-03-23T06:43:38;67.72;;;28.48;;
82230;SDS011;71832;45.138;9.816;2024-03-23T06:46:06;66.55;;;29.50;;
82230;SDS011;71832;45.138;9.816;2024-03-23T06:48:33;64.88;;;28.80;;
82230;SDS011;71832;45.138;9.816;2024-03-23T06:51:01;65.13;;;28.95;;
82230;SDS011;71832;45.138;9.816;2024-03-23T06:53:29;64.25;;;28.30;;
82230;SDS011;71832;45.138;9.816;2024-03-23T06:55:57;60.75;;;28.35;;
82230;SDS011;71832;45.138;9.816;2024-03-23T06:58:26;64.00;;;28.88;;
82230;SDS011;71832;45.138;9.816;2024-03-23T07:00:54;64.07;;;29.10;;
82230;SDS011;71832;45.138;9.816;2024-03-23T07:03:22;64.53;;;28.98;;
82230;SDS011;71832;45.138;9.816;2024-03-23T07:05:52;61.55;;;29.20;;
82230;SDS011;71832;45.138;9.816;2024-03-23T07:08:24;64.85;;;30.25;;
82230;SDS011;71832;45.138;9.816;2024-03-23T07:10:53;62.60;;;29.80;;
82230;SDS011;71832;45.138;9.816;2024-03-23T07:13:22;74.00;;;31.88;;
82230;SDS011;71832;45.138;9.816;2024-03-23T07:15:51;65.85;;;30.65;;
82230;SDS011;71832;45.138;9.816;2024-03-23T07:18:21;66.28;;;30.75;;
82230;SDS011;71832;45.138;9.816;2024-03-23T07:23:23;69.07;;;31.65;;
82230;SDS011;71832;45.138;9.816;2024-03-23T07:26:13;62.30;;;30.13;;
82230;SDS011;71832;45.138;9.816;2024-03-23T07:28:39;66.80;;;29.50;;
82230;SDS011;71832;45.138;9.816;2024-03-23T07:31:10;65.57;;;29.77;;
82230;SDS011;71832;45.138;9.816;2024-03-23T07:33:48;65.32;;;30.90;;
82230;SDS011;71832;45.138;9.816;2024-03-23T07:36:16;68.35;;;32.13;;
82230;SDS011;71832;45.138;9.816;2024-03-23T07:38:44;68.57;;;30.83;;
82230;SDS011;71832;45.138;9.816;2024-03-23T07:41:14;66.68;;;32.00;;
82230;SDS011;71832;45.138;9.816;2024-03-23T07:43:44;63.88;;;31.83;;
82230;SDS011;71832;45.138;9.816;2024-03-23T07:46:14;65.72;;;30.45;;
82230;SDS011;71832;45.138;9.816;2024-03-23T07:48:44;61.53;;;30.20;;
82230;SDS011;71832;45.138;9.816;2024-03-23T07:51:16;61.78;;;29.83;;
82230;SDS011;71832;45.138;9.816;2024-03-23T07:53:46;64.57;;;30.65;;
82230;SDS011;71832;45.138;9.816;2024-03-23T07:56:15;69.38;;;32.42;;
82230;SDS011;71832;45.138;9.816;2024-03-23T07:58:45;66.30;;;30.85;;
82230;SDS011;71832;45.138;9.816;2024-03-23T08:01:14;61.90;;;29.70;;
82230;SDS011;71832;45.138;9.816;2024-03-23T08:03:44;67.32;;;32.33;;
82230;SDS011;71832;45.138;9.816;2024-03-23T08:06:12;64.35;;;30.75;;
82230;SDS011;71832;45.138;9.816;2024-03-23T08:08:43;64.75;;;30.88;;
82230;SDS011;71832;45.138;9.816;2024-03-23T08:11:12;67.43;;;31.45;;
82230;SDS011;71832;45.138;9.816;2024-03-23T08:13:42;65.75;;;31.40;;
82230;SDS011;71832;45.138;9.816;2024-03-23T08:16:12;64.53;;;31.50;;
82230;SDS011;71832;45.138;9.816;2024-03-23T08:18:40;66.78;;;31.35;;
82230;SDS011;71832;45.138;9.816;2024-03-23T08:21:08;65.05;;;31.65;;
82230;SDS011;71832;45.138;9.816;2024-03-23T08:23:37;65.15;;;31.42;;
82230;SDS011;71832;45.138;9.816;2024-03-23T08:26:06;77.82;;;36.00;;
82230;SDS011;71832;45.138;9.816;2024-03-23T08:28:35;70.25;;;34.13;;
82230;SDS011;71832;45.138;9.816;2024-03-23T08:31:04;76.55;;;35.13;;
82230;SDS011;71832;45.138;9.816;2024-03-23T08:33:35;74.30;;;34.65;;
82230;SDS011;71832;45.138;9.816;2024-03-23T08:36:05;74.97;;;35.97;;
82230;SDS011;71832;45.138;9.816;2024-03-23T08:38:35;76.15;;;35.30;;
82230;SDS011;71832;45.138;9.816;2024-03-23T08:41:04;73.55;;;34.75;;
82230;SDS011;71832;45.138;9.816;2024-03-23T08:43:35;81.20;;;37.35;;
82230;SDS011;71832;45.138;9.816;2024-03-23T08:46:06;79.53;;;35.75;;
82230;SDS011;71832;45.138;9.816;2024-03-23T08:48:36;69.93;;;33.38;;
82230;SDS011;71832;45.138;9.816;2024-03-23T08:51:07;59.08;;;27.58;;
82230;SDS011;71832;45.138;9.816;2024-03-23T08:53:37;67.00;;;30.17;;
82230;SDS011;71832;45.138;9.816;2024-03-23T08:56:05;60.35;;;29.13;;
82230;SDS011;71832;45.138;9.816;2024-03-23T08:58:35;61.13;;;29.40;;
82230;SDS011;71832;45.138;9.816;2024-03-23T09:01:13;59.00;;;29.98;;
82230;SDS011;71832;45.138;9.816;2024-03-23T09:03:42;55.58;;;25.92;;
82230;SDS011;71832;45.138;9.816;2024-03-23T09:06:11;58.55;;;27.58;;
82230;SDS011;71832;45.138;9.816;2024-03-23T09:08:41;61.47;;;28.17;;
82230;SDS011;71832;45.138;9.816;2024-03-23T09:11:10;60.78;;;29.20;;
82230;SDS011;71832;45.138;9.816;2024-03-23T09:13:40;56.83;;;26.80;;
82230;SDS011;71832;45.138;9.816;2024-03-23T09:16:09;51.50;;;25.92;;
82230;SDS011;71832;45.138;9.816;2024-03-23T09:18:37;55.38;;;26.08;;
82230;SDS011;71832;45.138;9.816;2024-03-23T09:21:11;56.63;;;27.23;;
82230;SDS011;71832;45.138;9.816;2024-03-23T09:23:43;51.65;;;25.73;;
82230;SDS011;71832;45.138;9.816;2024-03-23T09:28:39;55.45;;;25.50;;
82230;SDS011;71832;45.138;9.816;2024-03-23T09:31:08;52.83;;;27.27;;
82230;SDS011;71832;45.138;9.816;2024-03-23T09:33:40;57.65;;;26.60;;
82230;SDS011;71832;45.138;9.816;2024-03-23T09:36:09;54.05;;;26.67;;
82230;SDS011;71832;45.138;9.816;2024-03-23T09:38:38;47.08;;;22.13;;
82230;SDS011;71832;45.138;9.816;2024-03-23T09:41:08;41.15;;;20.98;;
82230;SDS011;71832;45.138;9.816;2024-03-23T09:43:36;42.22;;;21.20;;
82230;SDS011;71832;45.138;9.816;2024-03-23T09:46:05;47.80;;;21.85;;
82230;SDS011;71832;45.138;9.816;2024-03-23T09:48:34;44.10;;;22.67;;
82230;SDS011;71832;45.138;9.816;2024-03-23T09:51:04;49.75;;;24.85;;
82230;SDS011;71832;45.138;9.816;2024-03-23T09:53:34;47.13;;;23.05;;
82230;SDS011;71832;45.138;9.816;2024-03-23T09:56:04;43.67;;;22.00;;
82230;SDS011;71832;45.138;9.816;2024-03-23T09:58:34;43.85;;;22.50;;
82230;SDS011;71832;45.138;9.816;2024-03-23T10:01:03;42.03;;;19.77;;
82230;SDS011;71832;45.138;9.816;2024-03-23T10:03:41;39.22;;;20.00;;
82230;SDS011;71832;45.138;9.816;2024-03-23T10:06:11;38.28;;;18.83;;
82230;SDS011;71832;45.138;9.816;2024-03-23T10:08:38;41.83;;;19.90;;
82230;SDS011;71832;45.138;9.816;2024-03-23T10:11:16;43.00;;;20.98;;
82230;SDS011;71832;45.138;9.816;2024-03-23T10:13:44;40.30;;;20.58;;
82230;SDS011;71832;45.138;9.816;2024-03-23T10:16:12;42.30;;;21.33;;
82230;SDS011;71832;45.138;9.816;2024-03-23T10:18:49;41.20;;;21.20;;
82230;SDS011;71832;45.138;9.816;2024-03-23T10:21:17;39.83;;;20.60;;
82230;SDS011;71832;45.138;9.816;2024-03-23T10:23:45;43.15;;;19.58;;
82230;SDS011;71832;45.138;9.816;2024-03-23T10:26:16;37.88;;;19.25;;
82230;SDS011;71832;45.138;9.816;2024-03-23T10:34:07;38.15;;;18.90;;
82230;SDS011;71832;45.138;9.816;2024-03-23T10:36:34;42.72;;;19.23;;
82230;SDS011;71832;45.138;9.816;2024-03-23T10:39:07;37.22;;;18.02;;
82230;SDS011;71832;45.138;9.816;2024-03-23T10:41:36;36.45;;;18.25;;
82230;SDS011;71832;45.138;9.816;2024-03-23T10:44:06;34.85;;;18.33;;
82230;SDS011;71832;45.138;9.816;2024-03-23T10:46:34;34.92;;;19.63;;
82230;SDS011;71832;45.138;9.816;2024-03-23T10:49:03;40.05;;;19.80;;
82230;SDS011;71832;45.138;9.816;2024-03-23T10:51:32;38.22;;;18.73;;
82230;SDS011;71832;45.138;9.816;2024-03-23T10:54:00;39.53;;;19.52;;
82230;SDS011;71832;45.138;9.816;2024-03-23T10:56:32;37.25;;;19.95;;
82230;SDS011;71832;45.138;9.816;2024-03-23T10:59:03;39.00;;;19.85;;
82230;SDS011;71832;45.138;9.816;2024-03-23T11:01:33;44.42;;;20.55;;
82230;SDS011;71832;45.138;9.816;2024-03-23T11:04:00;40.50;;;19.05;;
82230;SDS011;71832;45.138;9.816;2024-03-23T11:06:38;37.35;;;18.77;;
82230;SDS011;71832;45.138;9.816;2024-03-23T11:12:17;37.67;;;18.20;;
82230;SDS011;71832;45.138;9.816;2024-03-23T11:14:56;35.65;;;17.85;;
82230;SDS011;71832;45.138;9.816;2024-03-23T11:17:28;35.95;;;18.00;;
82230;SDS011;71832;45.138;9.816;2024-03-23T11:22:46;36.60;;;19.13;;
82230;SDS011;71832;45.138;9.816;2024-03-23T11:25:14;38.25;;;18.38;;
82230;SDS011;71832;45.138;9.816;2024-03-23T11:27:46;38.95;;;19.42;;
82230;SDS011;71832;45.138;9.816;2024-03-23T11:30:17;39.22;;;19.40;;
82230;SDS011;71832;45.138;9.816;2024-03-23T11:32:55;36.22;;;19.13;;
82230;SDS011;71832;45.138;9.816;2024-03-23T11:35:31;34.45;;;18.60;;
82230;SDS011;71832;45.138;9.816;2024-03-23T11:40:33;35.25;;;18.77;;
82230;SDS011;71832;45.138;9.816;2024-03-23T11:43:04;38.42;;;18.77;;
82230;SDS011;71832;45.138;9.816;2024-03-23T11:45:35;35.67;;;18.73;;
82230;SDS011;71832;45.138;9.816;2024-03-23T11:48:10;34.72;;;18.10;;
82230;SDS011;71832;45.138;9.816;2024-03-23T11:50:40;31.92;;;17.33;;
82230;SDS011;71832;45.138;9.816;2024-03-23T11:55:42;33.60;;;16.85;;
82230;SDS011;71832;45.138;9.816;2024-03-23T11:58:30;31.88;;;16.63;;
82230;SDS011;71832;45.138;9.816;2024-03-23T12:00:59;37.95;;;18.65;;
82230;SDS011;71832;45.138;9.816;2024-03-23T12:03:29;34.67;;;18.40;;
82230;SDS011;71832;45.138;9.816;2024-03-23T12:05:59;37.25;;;18.80;;
82230;SDS011;71832;45.138;9.816;2024-03-23T12:08:29;32.30;;;18.05;;
82230;SDS011;71832;45.138;9.816;2024-03-23T12:11:10;36.42;;;18.08;;
82230;SDS011;71832;45.138;9.816;2024-03-23T12:13:41;32.70;;;17.75;;
82230;SDS011;71832;45.138;9.816;2024-03-23T12:16:16;37.28;;;18.58;;
82230;SDS011;71832;45.138;9.816;2024-03-23T12:18:46;30.45;;;16.00;;
82230;SDS011;71832;45.138;9.816;2024-03-23T12:21:17;33.95;;;16.73;;
82230;SDS011;71832;45.138;9.816;2024-03-23T12:23:45;33.75;;;17.40;;
82230;SDS011;71832;45.138;9.816;2024-03-23T12:26:16;31.05;;;17.10;;
82230;SDS011;71832;45.138;9.816;2024-03-23T12:28:45;34.78;;;17.63;;
82230;SDS011;71832;45.138;9.816;2024-03-23T12:31:14;33.38;;;17.80;;
82230;SDS011;71832;45.138;9.816;2024-03-23T12:33:42;30.92;;;17.33;;
82230;SDS011;71832;45.138;9.816;2024-03-23T12:36:12;31.90;;;16.45;;
82230;SDS011;71832;45.138;9.816;2024-03-23T12:38:40;31.80;;;16.70;;
82230;SDS011;71832;45.138;9.816;2024-03-23T12:41:10;35.58;;;16.73;;
82230;SDS011;71832;45.138;9.816;2024-03-23T12:43:39;30.13;;;15.90;;
82230;SDS011;71832;45.138;9.816;2024-03-23T12:46:08;29.23;;;16.08;;
82230;SDS011;71832;45.138;9.816;2024-03-23T12:48:37;33.53;;;16.67;;
82230;SDS011;71832;45.138;9.816;2024-03-23T12:51:07;28.58;;;15.73;;
82230;SDS011;71832;45.138;9.816;2024-03-23T12:53:36;32.63;;;16.15;;
82230;SDS011;71832;45.138;9.816;2024-03-23T12:56:05;28.23;;;16.55;;
82230;SDS011;71832;45.138;9.816;2024-03-23T12:58:33;34.13;;;16.23;;
82230;SDS011;71832;45.138;9.816;2024-03-23T13:01:02;31.02;;;16.80;;
82230;SDS011;71832;45.138;9.816;2024-03-23T13:03:32;30.33;;;17.65;;
82230;SDS011;71832;45.138;9.816;2024-03-23T13:06:00;28.63;;;15.77;;
82230;SDS011;71832;45.138;9.816;2024-03-23T13:08:33;31.75;;;16.40;;
82230;SDS011;71832;45.138;9.816;2024-03-23T13:11:02;29.42;;;15.75;;
82230;SDS011;71832;45.138;9.816;2024-03-23T13:13:31;32.58;;;17.60;;
82230;SDS011;71832;45.138;9.816;2024-03-23T13:15:59;28.05;;;15.30;;
82230;SDS011;71832;45.138;9.816;2024-03-23T13:18:29;31.73;;;17.55;;
82230;SDS011;71832;45.138;9.816;2024-03-23T13:20:57;31.95;;;16.67;;
82230;SDS011;71832;45.138;9.816;2024-03-23T13:23:26;33.00;;;17.33;;
82230;SDS011;71832;45.138;9.816;2024-03-23T13:25:56;31.80;;;17.13;;
82230;SDS011;71832;45.138;9.816;2024-03-23T13:28:25;33.80;;;18.23;;
82230;SDS011;71832;45.138;9.816;2024-03-23T13:30:54;32.75;;;18.42;;
82230;SDS011;71832;45.138;9.816;2024-03-23T13:33:25;36.15;;;18.25;;
82230;SDS011;71832;45.138;9.816;2024-03-23T13:35:54;35.05;;;18.35;;
82230;SDS011;71832;45.138;9.816;2024-03-23T13:38:22;34.30;;;16.98;;
82230;SDS011;71832;45.138;9.816;2024-03-23T13:40:51;32.55;;;17.77;;
82230;SDS011;71832;45.138;9.816;2024-03-23T13:43:21;37.70;;;18.08;;
82230;SDS011;71832;45.138;9.816;2024-03-23T13:45:53;36.00;;;18.70;;
82230;SDS011;71832;45.138;9.816;2024-03-23T13:48:23;32.95;;;19.70;;
82230;SDS011;71832;45.138;9.816;2024-03-23T13:51:02;32.60;;;18.50;;
82230;SDS011;71832;45.138;9.816;2024-03-23T13:53:30;36.25;;;19.63;;
82230;SDS011;71832;45.138;9.816;2024-03-23T13:55:59;35.47;;;18.70;;
82230;SDS011;71832;45.138;9.816;2024-03-23T13:58:27;36.47;;;17.92;;
82230;SDS011;71832;45.138;9.816;2024-03-23T14:00:57;28.00;;;16.33;;
82230;SDS011;71832;45.138;9.816;2024-03-23T14:03:25;29.63;;;16.73;;
82230;SDS011;71832;45.138;9.816;2024-03-23T14:05:57;32.33;;;17.83;;
82230;SDS011;71832;45.138;9.816;2024-03-23T14:08:27;30.73;;;17.00;;
82230;SDS011;71832;45.138;9.816;2024-03-23T14:10:57;29.83;;;17.30;;
82230;SDS011;71832;45.138;9.816;2024-03-23T14:13:25;33.50;;;16.27;;
82230;SDS011;71832;45.138;9.816;2024-03-23T14:15:53;31.45;;;17.35;;
82230;SDS011;71832;45.138;9.816;2024-03-23T14:18:21;33.25;;;16.75;;
82230;SDS011;71832;45.138;9.816;2024-03-23T14:20:49;32.03;;;16.27;;
82230;SDS011;71832;45.138;9.816;2024-03-23T14:23:18;30.58;;;15.20;;
82230;SDS011;71832;45.138;9.816;2024-03-23T14:25:46;27.80;;;15.23;;
82230;SDS011;71832;45.138;9.816;2024-03-23T14:28:15;30.70;;;15.85;;
82230;SDS011;71832;45.138;9.816;2024-03-23T14:30:44;28.42;;;14.68;;
82230;SDS011;71832;45.138;9.816;2024-03-23T14:33:13;25.50;;;14.27;;
82230;SDS011;71832;45.138;9.816;2024-03-23T14:35:41;27.85;;;14.45;;
82230;SDS011;71832;45.138;9.816;2024-03-23T14:38:09;28.48;;;14.70;;
82230;SDS011;71832;45.138;9.816;2024-03-23T14:40:37;24.42;;;13.15;;
82230;SDS011;71832;45.138;9.816;2024-03-23T14:43:06;28.77;;;14.88;;
82230;SDS011;71832;45.138;9.816;2024-03-23T14:45:34;28.13;;;13.75;;
82230;SDS011;71832;45.138;9.816;2024-03-23T14:48:02;25.77;;;13.52;;
82230;SDS011;71832;45.138;9.816;2024-03-23T14:50:30;26.83;;;13.75;;
82230;SDS011;71832;45.138;9.816;2024-03-23T14:52:57;24.25;;;12.77;;
82230;SDS011;71832;45.138;9.816;2024-03-23T14:55:25;26.80;;;14.77;;
82230;SDS011;71832;45.138;9.816;2024-03-23T14:57:54;24.65;;;14.73;;
82230;SDS011;71832;45.138;9.816;2024-03-23T15:00:21;28.17;;;15.07;;
82230;SDS011;71832;45.138;9.816;2024-03-23T15:02:49;25.90;;;13.77;;
82230;SDS011;71832;45.138;9.816;2024-03-23T15:05:18;30.98;;;13.88;;
82230;SDS011;71832;45.138;9.816;2024-03-23T15:07:46;28.02;;;14.23;;
82230;SDS011;71832;45.138;9.816;2024-03-23T15:10:15;22.83;;;14.27;;
82230;SDS011;71832;45.138;9.816;2024-03-23T15:12:44;26.88;;;14.45;;
82230;SDS011;71832;45.138;9.816;2024-03-23T15:15:13;25.48;;;14.15;;
82230;SDS011;71832;45.138;9.816;2024-03-23T15:17:41;25.15;;;14.45;;
82230;SDS011;71832;45.138;9.816;2024-03-23T15:20:11;27.67;;;15.18;;
82230;SDS011;71832;45.138;9.816;2024-03-23T15:22:39;22.80;;;12.68;;
82230;SDS011;71832;45.138;9.816;2024-03-23T15:25:07;23.60;;;13.73;;
82230;SDS011;71832;45.138;9.816;2024-03-23T15:27:36;26.98;;;14.23;;
82230;SDS011;71832;45.138;9.816;2024-03-23T15:30:05;25.35;;;14.45;;
82230;SDS011;71832;45.138;9.816;2024-03-23T15:32:34;28.58;;;13.55;;
82230;SDS011;71832;45.138;9.816;2024-03-23T15:35:04;22.67;;;11.40;;
82230;SDS011;71832;45.138;9.816;2024-03-23T15:37:33;22.80;;;11.80;;
82230;SDS011;71832;45.138;9.816;2024-03-23T15:40:01;19.27;;;9.85;;
82230;SDS011;71832;45.138;9.816;2024-03-23T15:42:29;18.35;;;9.35;;
82230;SDS011;71832;45.138;9.816;2024-03-23T15:44:57;15.88;;;9.18;;
82230;SDS011;71832;45.138;9.816;2024-03-23T15:47:26;22.40;;;9.38;;